sensor_id;sensor_type;location;lat;lon;timestamp;pressure;altitude;pressure_sealevel;temperature;humidity
35892;BME280;21993;42.672;23.296;2022-07-22T00:01:50;94763.72;;;26.61;44.67
35892;BME280;21993;42.672;23.296;2022-07-22T00:04:16;94764.06;;;26.53;44.68
35892;BME280;21993;42.672;23.296;2022-07-22T00:06:42;94752.97;;;26.50;45.06
35892;BME280;21993;42.672;23.296;2022-07-22T00:09:07;94759.59;;;26.47;45.39
35892;BME280;21993;42.672;23.296;2022-07-22T00:11:34;94751.44;;;26.42;45.10
35892;BME280;21993;42.672;23.296;2022-07-22T00:13:59;94754.19;;;26.35;45.37
35892;BME280;21993;42.672;23.296;2022-07-22T00:16:25;94756.41;;;26.27;45.87
35892;BME280;21993;42.672;23.296;2022-07-22T00:18:51;94752.31;;;26.24;45.36
35892;BME280;21993;42.672;23.296;2022-07-22T00:21:16;94761.88;;;26.20;45.70
35892;BME280;21993;42.672;23.296;2022-07-22T00:23:42;94761.31;;;26.18;45.49
35892;BME280;21993;42.672;23.296;2022-07-22T00:26:07;94766.69;;;26.18;45.42
35892;BME280;21993;42.672;23.296;2022-07-22T00:28:33;94766.38;;;25.96;45.68
35892;BME280;21993;42.672;23.296;2022-07-22T00:30:58;94770.59;;;25.92;45.30
35892;BME280;21993;42.672;23.296;2022-07-22T00:33:24;94764.56;;;25.78;46.19
35892;BME280;21993;42.672;23.296;2022-07-22T00:35:49;94771.25;;;25.76;46.95
35892;BME280;21993;42.672;23.296;2022-07-22T00:38:15;94774.81;;;25.70;46.39
35892;BME280;21993;42.672;23.296;2022-07-22T00:40:40;94774.81;;;25.70;46.18
35892;BME280;21993;42.672;23.296;2022-07-22T00:43:06;94776.00;;;25.55;45.72
35892;BME280;21993;42.672;23.296;2022-07-22T00:45:31;94779.84;;;25.48;45.88
35892;BME280;21993;42.672;23.296;2022-07-22T00:47:57;94776.19;;;25.42;46.10
35892;BME280;21993;42.672;23.296;2022-07-22T00:50:22;94778.28;;;25.40;46.12
35892;BME280;21993;42.672;23.296;2022-07-22T00:52:49;94780.00;;;25.35;46.28
35892;BME280;21993;42.672;23.296;2022-07-22T00:55:14;94781.28;;;25.32;46.27
35892;BME280;21993;42.672;23.296;2022-07-22T00:57:41;94780.97;;;25.22;46.52
35892;BME280;21993;42.672;23.296;2022-07-22T01:00:11;94787.19;;;25.22;46.42
35892;BME280;21993;42.672;23.296;2022-07-22T01:02:37;94778.38;;;25.15;46.29
35892;BME280;21993;42.672;23.296;2022-07-22T01:05:04;94774.25;;;25.13;46.52
35892;BME280;21993;42.672;23.296;2022-07-22T01:07:30;94771.03;;;25.04;47.48
35892;BME280;21993;42.672;23.296;2022-07-22T01:09:55;94764.78;;;25.10;46.91
35892;BME280;21993;42.672;23.296;2022-07-22T01:12:21;94769.13;;;25.11;46.95
35892;BME280;21993;42.672;23.296;2022-07-22T01:14:46;94767.97;;;25.01;47.34
35892;BME280;21993;42.672;23.296;2022-07-22T01:17:12;94774.56;;;25.05;47.42
35892;BME280;21993;42.672;23.296;2022-07-22T01:19:37;94776.22;;;25.06;47.72
35892;BME280;21993;42.672;23.296;2022-07-22T01:22:06;94777.06;;;24.99;47.96
35892;BME280;21993;42.672;23.296;2022-07-22T01:24:32;94773.41;;;24.94;48.05
35892;BME280;21993;42.672;23.296;2022-07-22T01:26:58;94777.47;;;24.78;48.25
35892;BME280;21993;42.672;23.296;2022-07-22T01:29:24;94774.44;;;24.75;48.08
35892;BME280;21993;42.672;23.296;2022-07-22T01:31:49;94772.56;;;24.75;48.18
35892;BME280;21993;42.672;23.296;2022-07-22T01:34:15;94770.34;;;24.72;48.48
35892;BME280;21993;42.672;23.296;2022-07-22T01:36:40;94775.22;;;24.57;48.66
35892;BME280;21993;42.672;23.296;2022-07-22T01:39:06;94776.88;;;24.58;48.32
35892;BME280;21993;42.672;23.296;2022-07-22T01:41:32;94776.38;;;24.42;49.23
35892;BME280;21993;42.672;23.296;2022-07-22T01:43:57;94780.56;;;24.38;49.56
35892;BME280;21993;42.672;23.296;2022-07-22T01:46:23;94779.06;;;24.42;49.51
35892;BME280;21993;42.672;23.296;2022-07-22T01:48:50;94778.84;;;24.44;48.98
35892;BME280;21993;42.672;23.296;2022-07-22T01:51:16;94782.78;;;24.41;49.86
35892;BME280;21993;42.672;23.296;2022-07-22T01:53:41;94776.19;;;24.37;49.88
35892;BME280;21993;42.672;23.296;2022-07-22T01:56:07;94778.94;;;24.31;49.94
35892;BME280;21993;42.672;23.296;2022-07-22T01:58:32;94780.59;;;24.32;50.00
35892;BME280;21993;42.672;23.296;2022-07-22T02:00:57;94779.13;;;24.29;49.89
35892;BME280;21993;42.672;23.296;2022-07-22T02:03:23;94782.44;;;24.31;50.05
35892;BME280;21993;42.672;23.296;2022-07-22T02:05:48;94788.09;;;24.17;50.07
35892;BME280;21993;42.672;23.296;2022-07-22T02:08:14;94783.13;;;24.20;49.74
35892;BME280;21993;42.672;23.296;2022-07-22T02:10:40;94780.84;;;24.24;50.05
35892;BME280;21993;42.672;23.296;2022-07-22T02:13:06;94791.72;;;24.29;49.92
35892;BME280;21993;42.672;23.296;2022-07-22T02:15:31;94783.91;;;24.27;50.32
35892;BME280;21993;42.672;23.296;2022-07-22T02:17:57;94783.75;;;24.22;50.36
35892;BME280;21993;42.672;23.296;2022-07-22T02:20:22;94793.44;;;24.23;50.22
35892;BME280;21993;42.672;23.296;2022-07-22T02:22:48;94807.22;;;24.27;49.99
35892;BME280;21993;42.672;23.296;2022-07-22T02:25:14;94802.94;;;24.19;50.30
35892;BME280;21993;42.672;23.296;2022-07-22T02:27:40;94802.13;;;24.19;50.79
35892;BME280;21993;42.672;23.296;2022-07-22T02:30:07;94793.84;;;24.20;50.38
35892;BME280;21993;42.672;23.296;2022-07-22T02:32:33;94791.00;;;24.15;50.31
35892;BME280;21993;42.672;23.296;2022-07-22T02:34:58;94803.03;;;24.06;51.38
35892;BME280;21993;42.672;23.296;2022-07-22T02:37:24;94793.56;;;24.03;51.28
35892;BME280;21993;42.672;23.296;2022-07-22T02:39:49;94806.63;;;23.93;51.90
35892;BME280;21993;42.672;23.296;2022-07-22T02:42:15;94794.47;;;23.91;52.02
35892;BME280;21993;42.672;23.296;2022-07-22T02:44:40;94800.69;;;23.84;51.93
35892;BME280;21993;42.672;23.296;2022-07-22T02:47:06;94803.81;;;23.81;52.13
35892;BME280;21993;42.672;23.296;2022-07-22T02:49:32;94796.59;;;23.82;52.42
35892;BME280;21993;42.672;23.296;2022-07-22T02:51:58;94791.63;;;23.79;52.46
35892;BME280;21993;42.672;23.296;2022-07-22T02:54:23;94795.19;;;23.73;52.71
35892;BME280;21993;42.672;23.296;2022-07-22T02:56:49;94794.78;;;23.69;52.82
35892;BME280;21993;42.672;23.296;2022-07-22T02:59:14;94786.78;;;23.63;53.16
35892;BME280;21993;42.672;23.296;2022-07-22T03:01:40;94794.63;;;23.64;52.62
35892;BME280;21993;42.672;23.296;2022-07-22T03:04:05;94788.84;;;23.54;52.59
35892;BME280;21993;42.672;23.296;2022-07-22T03:06:31;94789.25;;;23.57;53.58
35892;BME280;21993;42.672;23.296;2022-07-22T03:08:56;94800.63;;;23.59;53.15
35892;BME280;21993;42.672;23.296;2022-07-22T03:11:22;94796.25;;;23.58;53.67
35892;BME280;21993;42.672;23.296;2022-07-22T03:13:47;94791.13;;;23.57;53.61
35892;BME280;21993;42.672;23.296;2022-07-22T03:16:13;94793.59;;;23.52;53.64
35892;BME280;21993;42.672;23.296;2022-07-22T03:18:38;94792.44;;;23.41;53.23
35892;BME280;21993;42.672;23.296;2022-07-22T03:21:04;94791.16;;;23.44;53.52
35892;BME280;21993;42.672;23.296;2022-07-22T03:23:30;94798.38;;;23.43;53.39
35892;BME280;21993;42.672;23.296;2022-07-22T03:25:56;94796.31;;;23.45;53.25
35892;BME280;21993;42.672;23.296;2022-07-22T03:28:22;94795.09;;;23.41;53.89
35892;BME280;21993;42.672;23.296;2022-07-22T03:30:47;94799.44;;;23.42;54.20
35892;BME280;21993;42.672;23.296;2022-07-22T03:33:13;94797.59;;;23.36;54.19
35892;BME280;21993;42.672;23.296;2022-07-22T03:35:38;94806.66;;;23.35;54.21
35892;BME280;21993;42.672;23.296;2022-07-22T03:38:04;94801.75;;;23.32;54.66
35892;BME280;21993;42.672;23.296;2022-07-22T03:40:29;94803.81;;;23.30;54.35
35892;BME280;21993;42.672;23.296;2022-07-22T03:42:55;94801.53;;;23.27;53.98
35892;BME280;21993;42.672;23.296;2022-07-22T03:45:20;94805.47;;;23.31;54.25
35892;BME280;21993;42.672;23.296;2022-07-22T03:47:45;94815.97;;;23.26;54.27
35892;BME280;21993;42.672;23.296;2022-07-22T03:50:11;94812.25;;;23.34;54.65
35892;BME280;21993;42.672;23.296;2022-07-22T03:52:37;94805.03;;;23.27;54.58
35892;BME280;21993;42.672;23.296;2022-07-22T03:55:03;94817.84;;;23.25;54.64
35892;BME280;21993;42.672;23.296;2022-07-22T03:57:29;94821.31;;;23.33;54.42
35892;BME280;21993;42.672;23.296;2022-07-22T03:59:55;94819.09;;;23.23;54.79
35892;BME280;21993;42.672;23.296;2022-07-22T04:02:20;94820.50;;;23.32;54.82
35892;BME280;21993;42.672;23.296;2022-07-22T04:04:45;94820.94;;;23.22;53.96
35892;BME280;21993;42.672;23.296;2022-07-22T04:07:11;94812.28;;;23.20;54.52
35892;BME280;21993;42.672;23.296;2022-07-22T04:09:36;94827.13;;;23.23;54.64
35892;BME280;21993;42.672;23.296;2022-07-22T04:12:02;94822.38;;;23.18;54.72
35892;BME280;21993;42.672;23.296;2022-07-22T04:14:28;94823.59;;;23.29;54.30
35892;BME280;21993;42.672;23.296;2022-07-22T04:16:53;94823.78;;;23.34;53.85
35892;BME280;21993;42.672;23.296;2022-07-22T04:19:19;94823.34;;;23.37;53.38
35892;BME280;21993;42.672;23.296;2022-07-22T04:21:44;94828.50;;;23.39;53.71
35892;BME280;21993;42.672;23.296;2022-07-22T04:24:10;94825.63;;;23.40;53.76
35892;BME280;21993;42.672;23.296;2022-07-22T04:26:35;94832.41;;;23.43;54.00
35892;BME280;21993;42.672;23.296;2022-07-22T04:29:02;94836.72;;;23.44;54.03
35892;BME280;21993;42.672;23.296;2022-07-22T04:31:28;94832.81;;;23.46;53.28
35892;BME280;21993;42.672;23.296;2022-07-22T04:33:53;94836.28;;;23.53;52.52
35892;BME280;21993;42.672;23.296;2022-07-22T04:36:19;94845.13;;;23.54;52.89
35892;BME280;21993;42.672;23.296;2022-07-22T04:38:44;94852.34;;;23.53;52.69
35892;BME280;21993;42.672;23.296;2022-07-22T04:41:10;94840.19;;;23.57;52.50
35892;BME280;21993;42.672;23.296;2022-07-22T04:43:35;94838.34;;;23.65;52.27
35892;BME280;21993;42.672;23.296;2022-07-22T04:46:01;94847.81;;;23.67;52.14
35892;BME280;21993;42.672;23.296;2022-07-22T04:48:26;94852.78;;;23.64;52.02
35892;BME280;21993;42.672;23.296;2022-07-22T04:50:52;94855.41;;;23.70;51.59
35892;BME280;21993;42.672;23.296;2022-07-22T04:53:17;94856.22;;;23.71;51.91
35892;BME280;21993;42.672;23.296;2022-07-22T04:55:42;94853.53;;;23.71;51.41
35892;BME280;21993;42.672;23.296;2022-07-22T04:58:08;94858.84;;;23.84;50.84
35892;BME280;21993;42.672;23.296;2022-07-22T05:00:33;94854.91;;;23.86;51.15
35892;BME280;21993;42.672;23.296;2022-07-22T05:02:59;94852.25;;;23.86;50.42
35892;BME280;21993;42.672;23.296;2022-07-22T05:05:25;94855.75;;;23.87;50.42
35892;BME280;21993;42.672;23.296;2022-07-22T05:07:51;94860.28;;;23.86;50.76
35892;BME280;21993;42.672;23.296;2022-07-22T05:10:16;94854.09;;;23.86;50.68
35892;BME280;21993;42.672;23.296;2022-07-22T05:12:42;94857.44;;;23.81;50.78
35892;BME280;21993;42.672;23.296;2022-07-22T05:15:08;94868.72;;;23.97;51.16
35892;BME280;21993;42.672;23.296;2022-07-22T05:17:33;94856.53;;;23.94;50.65
35892;BME280;21993;42.672;23.296;2022-07-22T05:20:02;94852.22;;;23.93;51.11
35892;BME280;21993;42.672;23.296;2022-07-22T05:22:28;94866.13;;;24.15;50.89
35892;BME280;21993;42.672;23.296;2022-07-22T05:24:53;94856.81;;;24.18;50.60
35892;BME280;21993;42.672;23.296;2022-07-22T05:27:19;94866.78;;;24.04;50.72
35892;BME280;21993;42.672;23.296;2022-07-22T05:29:44;94865.97;;;24.03;50.73
35892;BME280;21993;42.672;23.296;2022-07-22T05:32:10;94858.56;;;24.05;50.70
35892;BME280;21993;42.672;23.296;2022-07-22T05:34:35;94865.34;;;24.08;51.38
35892;BME280;21993;42.672;23.296;2022-07-22T05:37:01;94867.91;;;24.28;50.83
35892;BME280;21993;42.672;23.296;2022-07-22T05:39:26;94865.53;;;24.45;50.19
35892;BME280;21993;42.672;23.296;2022-07-22T05:41:52;94860.78;;;24.47;50.40
35892;BME280;21993;42.672;23.296;2022-07-22T05:44:17;94856.44;;;24.46;50.37
35892;BME280;21993;42.672;23.296;2022-07-22T05:46:43;94859.91;;;24.53;50.37
35892;BME280;21993;42.672;23.296;2022-07-22T05:49:08;94865.59;;;24.63;49.57
35892;BME280;21993;42.672;23.296;2022-07-22T05:51:33;94862.22;;;24.74;49.29
35892;BME280;21993;42.672;23.296;2022-07-22T05:54:00;94865.72;;;24.75;49.70
35892;BME280;21993;42.672;23.296;2022-07-22T05:56:27;94857.41;;;24.83;49.26
35892;BME280;21993;42.672;23.296;2022-07-22T05:58:53;94856.84;;;24.99;49.81
35892;BME280;21993;42.672;23.296;2022-07-22T06:01:18;94853.09;;;25.07;49.51
35892;BME280;21993;42.672;23.296;2022-07-22T06:03:44;94851.13;;;25.14;49.14
35892;BME280;21993;42.672;23.296;2022-07-22T06:06:09;94856.59;;;25.25;48.91
35892;BME280;21993;42.672;23.296;2022-07-22T06:08:36;94856.69;;;25.37;48.28
35892;BME280;21993;42.672;23.296;2022-07-22T06:11:02;94853.47;;;25.47;48.67
35892;BME280;21993;42.672;23.296;2022-07-22T06:13:28;94858.94;;;25.59;48.75
35892;BME280;21993;42.672;23.296;2022-07-22T06:15:53;94861.38;;;25.60;48.70
35892;BME280;21993;42.672;23.296;2022-07-22T06:18:19;94851.09;;;25.75;48.24
35892;BME280;21993;42.672;23.296;2022-07-22T06:20:45;94857.59;;;25.86;48.46
35892;BME280;21993;42.672;23.296;2022-07-22T06:23:10;94860.13;;;25.99;48.43
35892;BME280;21993;42.672;23.296;2022-07-22T06:25:36;94856.88;;;26.09;47.95
35892;BME280;21993;42.672;23.296;2022-07-22T06:28:02;94855.25;;;26.20;48.24
35892;BME280;21993;42.672;23.296;2022-07-22T06:30:27;94857.78;;;26.33;47.34
35892;BME280;21993;42.672;23.296;2022-07-22T06:32:53;94857.84;;;26.45;47.02
35892;BME280;21993;42.672;23.296;2022-07-22T06:35:19;94854.81;;;26.53;46.91
35892;BME280;21993;42.672;23.296;2022-07-22T06:37:44;94851.09;;;26.65;46.92
35892;BME280;21993;42.672;23.296;2022-07-22T06:40:10;94859.91;;;26.84;46.61
35892;BME280;21993;42.672;23.296;2022-07-22T06:42:36;94859.56;;;26.92;46.04
35892;BME280;21993;42.672;23.296;2022-07-22T06:45:02;94854.88;;;27.00;46.22
35892;BME280;21993;42.672;23.296;2022-07-22T06:47:28;94849.38;;;27.06;45.49
35892;BME280;21993;42.672;23.296;2022-07-22T06:49:54;94859.13;;;27.19;44.86
35892;BME280;21993;42.672;23.296;2022-07-22T06:52:19;94856.91;;;27.28;44.81
35892;BME280;21993;42.672;23.296;2022-07-22T06:54:45;94846.31;;;27.49;44.90
35892;BME280;21993;42.672;23.296;2022-07-22T06:57:10;94856.16;;;27.56;44.52
35892;BME280;21993;42.672;23.296;2022-07-22T06:59:36;94853.81;;;27.71;43.59
35892;BME280;21993;42.672;23.296;2022-07-22T07:02:02;94849.47;;;27.70;43.96
35892;BME280;21993;42.672;23.296;2022-07-22T07:04:27;94854.59;;;27.83;44.31
35892;BME280;21993;42.672;23.296;2022-07-22T07:06:52;94851.88;;;27.95;42.95
35892;BME280;21993;42.672;23.296;2022-07-22T07:09:18;94861.22;;;28.04;42.82
35892;BME280;21993;42.672;23.296;2022-07-22T07:11:43;94858.00;;;28.19;42.31
35892;BME280;21993;42.672;23.296;2022-07-22T07:14:09;94856.91;;;28.31;41.90
35892;BME280;21993;42.672;23.296;2022-07-22T07:16:34;94855.69;;;28.39;42.16
35892;BME280;21993;42.672;23.296;2022-07-22T07:19:00;94858.09;;;28.52;41.66
35892;BME280;21993;42.672;23.296;2022-07-22T07:21:25;94872.09;;;28.66;41.67
35892;BME280;21993;42.672;23.296;2022-07-22T07:23:51;94859.00;;;28.75;41.09
35892;BME280;21993;42.672;23.296;2022-07-22T07:26:16;94858.94;;;28.86;41.00
35892;BME280;21993;42.672;23.296;2022-07-22T07:28:42;94857.50;;;28.96;40.80
35892;BME280;21993;42.672;23.296;2022-07-22T07:31:07;94862.97;;;29.01;40.51
35892;BME280;21993;42.672;23.296;2022-07-22T07:33:33;94861.41;;;29.05;40.62
35892;BME280;21993;42.672;23.296;2022-07-22T07:36:00;94868.03;;;29.14;41.07
35892;BME280;21993;42.672;23.296;2022-07-22T07:38:25;94863.28;;;29.21;40.03
35892;BME280;21993;42.672;23.296;2022-07-22T07:40:51;94854.41;;;29.26;40.40
35892;BME280;21993;42.672;23.296;2022-07-22T07:43:17;94852.63;;;29.31;40.47
35892;BME280;21993;42.672;23.296;2022-07-22T07:45:42;94856.06;;;29.43;39.68
35892;BME280;21993;42.672;23.296;2022-07-22T07:48:07;94857.41;;;29.63;38.79
35892;BME280;21993;42.672;23.296;2022-07-22T07:50:33;94855.00;;;29.66;38.91
35892;BME280;21993;42.672;23.296;2022-07-22T07:52:59;94859.25;;;29.79;39.81
35892;BME280;21993;42.672;23.296;2022-07-22T07:55:24;94862.81;;;29.85;39.02
35892;BME280;21993;42.672;23.296;2022-07-22T07:57:50;94856.47;;;29.96;39.08
35892;BME280;21993;42.672;23.296;2022-07-22T08:00:19;94852.00;;;30.07;38.32
35892;BME280;21993;42.672;23.296;2022-07-22T08:02:45;94855.34;;;30.14;37.68
35892;BME280;21993;42.672;23.296;2022-07-22T08:05:11;94854.84;;;30.17;36.78
35892;BME280;21993;42.672;23.296;2022-07-22T08:07:37;94855.53;;;30.29;35.66
35892;BME280;21993;42.672;23.296;2022-07-22T08:10:04;94852.56;;;30.31;36.87
35892;BME280;21993;42.672;23.296;2022-07-22T08:12:30;94853.78;;;30.45;35.50
35892;BME280;21993;42.672;23.296;2022-07-22T08:14:56;94849.94;;;30.41;36.27
35892;BME280;21993;42.672;23.296;2022-07-22T08:17:21;94855.16;;;30.47;35.99
35892;BME280;21993;42.672;23.296;2022-07-22T08:19:46;94858.22;;;30.56;35.85
35892;BME280;21993;42.672;23.296;2022-07-22T08:22:12;94860.47;;;30.64;36.28
35892;BME280;21993;42.672;23.296;2022-07-22T08:24:37;94854.09;;;30.75;36.86
35892;BME280;21993;42.672;23.296;2022-07-22T08:27:03;94851.78;;;30.89;35.20
35892;BME280;21993;42.672;23.296;2022-07-22T08:29:29;94857.84;;;31.01;35.44
35892;BME280;21993;42.672;23.296;2022-07-22T08:31:54;94857.28;;;30.99;35.03
35892;BME280;21993;42.672;23.296;2022-07-22T08:34:20;94853.22;;;31.02;33.84
35892;BME280;21993;42.672;23.296;2022-07-22T08:36:45;94860.03;;;31.04;34.29
35892;BME280;21993;42.672;23.296;2022-07-22T08:39:11;94855.16;;;31.06;33.91
35892;BME280;21993;42.672;23.296;2022-07-22T08:41:37;94862.88;;;31.20;34.07
35892;BME280;21993;42.672;23.296;2022-07-22T08:44:07;94856.41;;;31.26;34.59
35892;BME280;21993;42.672;23.296;2022-07-22T08:46:33;94857.34;;;31.42;33.80
35892;BME280;21993;42.672;23.296;2022-07-22T08:48:58;94848.09;;;31.43;33.90
35892;BME280;21993;42.672;23.296;2022-07-22T08:51:26;94857.97;;;31.54;33.84
35892;BME280;21993;42.672;23.296;2022-07-22T08:53:53;94855.03;;;31.65;33.42
35892;BME280;21993;42.672;23.296;2022-07-22T08:56:18;94860.75;;;31.69;33.76
35892;BME280;21993;42.672;23.296;2022-07-22T08:58:43;94864.63;;;31.78;33.71
35892;BME280;21993;42.672;23.296;2022-07-22T09:01:10;94864.38;;;31.85;33.91
35892;BME280;21993;42.672;23.296;2022-07-22T09:03:53;94857.34;;;31.89;32.40
35892;BME280;21993;42.672;23.296;2022-07-22T09:06:22;94867.66;;;31.87;32.66
35892;BME280;21993;42.672;23.296;2022-07-22T09:08:56;94860.66;;;31.96;32.82
35892;BME280;21993;42.672;23.296;2022-07-22T09:11:25;94869.03;;;31.94;33.01
35892;BME280;21993;42.672;23.296;2022-07-22T09:13:52;94863.91;;;32.03;33.15
35892;BME280;21993;42.672;23.296;2022-07-22T09:16:53;94862.84;;;32.09;33.38
35892;BME280;21993;42.672;23.296;2022-07-22T09:19:31;94867.25;;;32.20;33.17
35892;BME280;21993;42.672;23.296;2022-07-22T09:21:56;94864.06;;;32.39;32.70
35892;BME280;21993;42.672;23.296;2022-07-22T09:24:30;94865.69;;;32.45;32.30
35892;BME280;21993;42.672;23.296;2022-07-22T09:26:56;94857.00;;;32.38;32.36
35892;BME280;21993;42.672;23.296;2022-07-22T09:29:22;94862.44;;;32.38;32.78
35892;BME280;21993;42.672;23.296;2022-07-22T09:31:51;94856.19;;;32.53;32.24
35892;BME280;21993;42.672;23.296;2022-07-22T09:34:31;94852.69;;;32.57;31.35
35892;BME280;21993;42.672;23.296;2022-07-22T09:37:00;94866.28;;;32.62;32.60
35892;BME280;21993;42.672;23.296;2022-07-22T09:42:02;94846.16;;;32.78;31.46
35892;BME280;21993;42.672;23.296;2022-07-22T09:44:28;94855.19;;;32.89;31.16
35892;BME280;21993;42.672;23.296;2022-07-22T09:46:53;94846.50;;;32.97;32.07
35892;BME280;21993;42.672;23.296;2022-07-22T09:49:37;94851.38;;;33.11;31.15
35892;BME280;21993;42.672;23.296;2022-07-22T09:52:06;94848.91;;;33.19;30.90
35892;BME280;21993;42.672;23.296;2022-07-22T09:54:32;94849.19;;;33.13;30.39
35892;BME280;21993;42.672;23.296;2022-07-22T09:56:58;94847.31;;;33.08;31.41
35892;BME280;21993;42.672;23.296;2022-07-22T09:59:23;94834.75;;;33.12;30.76
35892;BME280;21993;42.672;23.296;2022-07-22T10:01:53;94845.38;;;33.24;30.80
35892;BME280;21993;42.672;23.296;2022-07-22T10:04:20;94844.00;;;33.31;30.86
35892;BME280;21993;42.672;23.296;2022-07-22T10:06:47;94833.41;;;33.40;30.16
35892;BME280;21993;42.672;23.296;2022-07-22T10:09:14;94834.50;;;33.39;30.35
35892;BME280;21993;42.672;23.296;2022-07-22T10:11:41;94830.69;;;33.40;30.16
35892;BME280;21993;42.672;23.296;2022-07-22T10:14:11;94833.66;;;33.44;30.77
35892;BME280;21993;42.672;23.296;2022-07-22T10:16:38;94825.22;;;33.45;30.60
35892;BME280;21993;42.672;23.296;2022-07-22T10:19:04;94829.00;;;33.54;30.41
35892;BME280;21993;42.672;23.296;2022-07-22T10:21:32;94824.88;;;33.72;30.32
35892;BME280;21993;42.672;23.296;2022-07-22T10:24:12;94817.78;;;33.81;30.10
35892;BME280;21993;42.672;23.296;2022-07-22T10:26:51;94814.72;;;33.88;29.59
35892;BME280;21993;42.672;23.296;2022-07-22T10:29:26;94817.78;;;33.81;30.35
35892;BME280;21993;42.672;23.296;2022-07-22T10:40:17;94820.00;;;34.29;29.37
35892;BME280;21993;42.672;23.296;2022-07-22T10:45:31;94812.22;;;34.07;28.94
35892;BME280;21993;42.672;23.296;2022-07-22T10:47:59;94807.53;;;34.23;28.88
35892;BME280;21993;42.672;23.296;2022-07-22T10:55:28;94809.16;;;34.19;28.98
35892;BME280;21993;42.672;23.296;2022-07-22T10:57:54;94807.78;;;34.21;28.76
35892;BME280;21993;42.672;23.296;2022-07-22T11:00:19;94811.53;;;34.30;28.71
35892;BME280;21993;42.672;23.296;2022-07-22T11:02:45;94807.75;;;34.31;27.92
35892;BME280;21993;42.672;23.296;2022-07-22T11:05:11;94806.69;;;34.22;28.87
35892;BME280;21993;42.672;23.296;2022-07-22T11:07:44;94800.84;;;34.39;27.59
35892;BME280;21993;42.672;23.296;2022-07-22T11:10:14;94797.31;;;34.43;27.37
35892;BME280;21993;42.672;23.296;2022-07-22T11:12:40;94800.03;;;34.43;27.94
35892;BME280;21993;42.672;23.296;2022-07-22T11:15:07;94802.84;;;34.28;29.00
35892;BME280;21993;42.672;23.296;2022-07-22T11:17:35;94801.13;;;34.37;28.27
35892;BME280;21993;42.672;23.296;2022-07-22T11:20:02;94803.06;;;34.37;28.82
35892;BME280;21993;42.672;23.296;2022-07-22T11:22:29;94793.97;;;34.57;28.20
35892;BME280;21993;42.672;23.296;2022-07-22T11:24:55;94802.25;;;34.41;28.77
35892;BME280;21993;42.672;23.296;2022-07-22T11:27:21;94797.31;;;34.43;27.90
35892;BME280;21993;42.672;23.296;2022-07-22T11:29:52;94795.09;;;34.51;27.90
35892;BME280;21993;42.672;23.296;2022-07-22T11:32:23;94794.19;;;34.60;27.98
35892;BME280;21993;42.672;23.296;2022-07-22T11:34:49;94788.81;;;34.50;28.04
35892;BME280;21993;42.672;23.296;2022-07-22T11:37:19;94795.66;;;34.48;29.53
35892;BME280;21993;42.672;23.296;2022-07-22T11:39:44;94790.13;;;34.58;28.43
35892;BME280;21993;42.672;23.296;2022-07-22T11:42:10;94800.47;;;34.61;28.11
35892;BME280;21993;42.672;23.296;2022-07-22T11:44:37;94792.16;;;34.76;28.28
35892;BME280;21993;42.672;23.296;2022-07-22T11:47:05;94787.63;;;34.66;28.04
35892;BME280;21993;42.672;23.296;2022-07-22T11:49:33;94786.81;;;34.66;28.23
35892;BME280;21993;42.672;23.296;2022-07-22T11:52:01;94787.75;;;34.80;27.88
35892;BME280;21993;42.672;23.296;2022-07-22T11:54:27;94777.09;;;34.84;28.25
35892;BME280;21993;42.672;23.296;2022-07-22T11:56:53;94786.63;;;34.91;27.92
35892;BME280;21993;42.672;23.296;2022-07-22T11:59:19;94787.38;;;34.97;27.65
35892;BME280;21993;42.672;23.296;2022-07-22T12:01:46;94783.50;;;35.03;27.64
35892;BME280;21993;42.672;23.296;2022-07-22T12:04:20;94789.25;;;35.02;27.76
35892;BME280;21993;42.672;23.296;2022-07-22T12:06:46;94780.44;;;35.10;26.91
35892;BME280;21993;42.672;23.296;2022-07-22T12:09:13;94773.91;;;35.06;27.37
35892;BME280;21993;42.672;23.296;2022-07-22T12:11:41;94770.34;;;35.10;27.43
35892;BME280;21993;42.672;23.296;2022-07-22T12:14:09;94772.78;;;35.12;27.01
35892;BME280;21993;42.672;23.296;2022-07-22T12:16:35;94772.41;;;34.94;27.41
35892;BME280;21993;42.672;23.296;2022-07-22T12:21:35;94761.66;;;35.03;28.07
35892;BME280;21993;42.672;23.296;2022-07-22T12:24:06;94770.34;;;35.10;27.72
35892;BME280;21993;42.672;23.296;2022-07-22T12:26:46;94762.91;;;35.16;27.98
35892;BME280;21993;42.672;23.296;2022-07-22T12:31:55;94770.13;;;35.07;27.65
35892;BME280;21993;42.672;23.296;2022-07-22T12:36:55;94771.38;;;35.14;26.77
35892;BME280;21993;42.672;23.296;2022-07-22T12:39:21;94761.47;;;34.94;27.52
35892;BME280;21993;42.672;23.296;2022-07-22T12:41:51;94765.41;;;34.78;27.36
35892;BME280;21993;42.672;23.296;2022-07-22T12:44:25;94761.34;;;34.76;27.89
35892;BME280;21993;42.672;23.296;2022-07-22T12:46:55;94761.28;;;34.81;28.45
35892;BME280;21993;42.672;23.296;2022-07-22T12:49:23;94758.22;;;34.87;28.21
35892;BME280;21993;42.672;23.296;2022-07-22T12:52:09;94760.03;;;35.02;27.98
35892;BME280;21993;42.672;23.296;2022-07-22T12:54:36;94754.97;;;34.90;27.63
35892;BME280;21993;42.672;23.296;2022-07-22T12:57:02;94760.63;;;34.99;26.54
35892;BME280;21993;42.672;23.296;2022-07-22T12:59:27;94754.91;;;34.95;25.32
35892;BME280;21993;42.672;23.296;2022-07-22T13:01:53;94753.31;;;34.89;26.85
35892;BME280;21993;42.672;23.296;2022-07-22T13:04:18;94761.03;;;34.82;27.12
35892;BME280;21993;42.672;23.296;2022-07-22T13:06:44;94755.22;;;34.89;26.11
35892;BME280;21993;42.672;23.296;2022-07-22T13:09:09;94759.03;;;34.88;26.47
35892;BME280;21993;42.672;23.296;2022-07-22T13:11:34;94758.00;;;34.84;26.92
35892;BME280;21993;42.672;23.296;2022-07-22T13:14:09;94751.22;;;34.81;26.94